createdAt,value
2023-02-15T00:00:55.869Z,2.90
2023-02-15T00:03:23.033Z,2.67
2023-02-15T00:05:50.200Z,2.70
2023-02-15T00:08:17.289Z,3.03
2023-02-15T00:10:44.365Z,2.17
2023-02-15T00:13:11.422Z,2.47
2023-02-15T00:15:38.517Z,2.53
2023-02-15T00:18:05.623Z,2.60
2023-02-15T00:20:32.687Z,2.70
2023-02-15T00:22:59.762Z,2.47
2023-02-15T00:25:26.828Z,2.63
2023-02-15T00:27:53.923Z,2.72
2023-02-15T00:30:21.053Z,2.40
2023-02-15T00:32:48.169Z,2.20
2023-02-15T00:35:15.228Z,2.25
2023-02-15T00:37:42.313Z,2.42
2023-02-15T00:40:09.376Z,2.40
2023-02-15T00:42:36.429Z,2.33
2023-02-15T00:45:03.513Z,2.30
2023-02-15T00:47:30.712Z,2.28
2023-02-15T00:49:57.761Z,2.42
2023-02-15T00:52:24.851Z,2.50
2023-02-15T00:54:51.929Z,2.33
2023-02-15T00:57:18.997Z,2.28
2023-02-15T00:59:46.057Z,2.50
2023-02-15T01:05:00.170Z,2.45
2023-02-15T01:07:27.265Z,2.20
2023-02-15T01:09:54.325Z,2.20
2023-02-15T01:12:21.406Z,2.22
2023-02-15T01:14:48.468Z,2.13
2023-02-15T01:17:15.542Z,2.30
2023-02-15T01:19:42.615Z,2.50
2023-02-15T01:22:09.763Z,2.30
2023-02-15T01:24:36.842Z,2.28
2023-02-15T01:27:03.894Z,2.30
2023-02-15T01:29:30.971Z,2.08
2023-02-15T01:31:58.186Z,2.22
2023-02-15T01:34:25.411Z,2.10
2023-02-15T01:36:52.478Z,2.30
2023-02-15T01:39:19.895Z,2.20
2023-02-15T01:41:46.975Z,2.20
2023-02-15T01:47:01.023Z,2.13
2023-02-15T01:49:28.446Z,2.28
2023-02-15T01:54:42.498Z,2.25
2023-02-15T01:57:09.812Z,1.92
2023-02-15T02:02:27.001Z,2.00
2023-02-15T02:07:41.378Z,2.30
2023-02-15T02:12:55.463Z,2.38
2023-02-15T02:15:22.523Z,2.03
2023-02-15T02:17:49.577Z,2.10
2023-02-15T02:20:16.817Z,2.17
2023-02-15T02:22:43.897Z,1.83
2023-02-15T02:25:10.988Z,1.92
2023-02-15T02:27:40.268Z,1.90
2023-02-15T02:32:54.350Z,1.83
2023-02-15T02:35:21.402Z,2.17
2023-02-15T02:37:48.484Z,2.05
2023-02-15T02:40:15.621Z,1.95
2023-02-15T02:42:42.740Z,1.95
2023-02-15T02:47:37.214Z,1.90
2023-02-15T02:50:04.267Z,1.90
2023-02-15T02:52:32.090Z,1.90
2023-02-15T02:54:59.158Z,1.73
2023-02-15T02:57:26.243Z,1.85
2023-02-15T02:59:53.317Z,1.83
2023-02-15T03:02:20.375Z,1.90
2023-02-15T03:04:47.502Z,1.88
2023-02-15T03:07:14.600Z,1.83
2023-02-15T03:09:44.633Z,1.77
2023-02-15T03:12:11.774Z,1.92
2023-02-15T03:14:38.856Z,1.80
2023-02-15T03:17:05.916Z,1.80
2023-02-15T03:19:32.973Z,1.98
2023-02-15T03:22:04.834Z,1.80
2023-02-15T03:24:31.966Z,1.92
2023-02-15T03:26:59.072Z,1.70
2023-02-15T03:29:26.152Z,1.90
2023-02-15T03:31:53.433Z,1.80
2023-02-15T03:34:20.562Z,1.80
2023-02-15T03:36:47.642Z,1.80
2023-02-15T03:39:14.696Z,1.90
2023-02-15T03:41:41.838Z,1.90
2023-02-15T03:46:55.937Z,1.98
2023-02-15T03:49:23.043Z,1.80
2023-02-15T03:51:50.115Z,1.90
2023-02-15T03:54:38.083Z,2.00
2023-02-15T03:57:23.792Z,1.70
2023-02-15T04:02:56.597Z,2.10
2023-02-15T04:05:23.717Z,1.80
2023-02-15T04:10:58.846Z,1.67
2023-02-15T04:13:26.035Z,1.73
2023-02-15T04:16:06.833Z,1.67
2023-02-15T04:18:53.150Z,1.70
2023-02-15T04:21:39.009Z,1.80
2023-02-15T04:24:24.551Z,1.70
2023-02-15T04:26:53.851Z,1.55
2023-02-15T04:29:21.196Z,1.60
2023-02-15T04:31:48.394Z,1.60
2023-02-15T04:34:15.602Z,1.88
2023-02-15T04:36:42.660Z,1.85
2023-02-15T04:41:36.769Z,1.95
2023-02-15T04:44:03.929Z,1.60
2023-02-15T04:46:30.993Z,2.00
2023-02-15T04:48:58.127Z,1.45
2023-02-15T04:51:25.227Z,1.60
2023-02-15T04:53:55.081Z,1.70
2023-02-15T04:56:22.144Z,1.70
2023-02-15T04:58:49.257Z,1.75
2023-02-15T05:01:16.398Z,1.77
2023-02-15T05:03:43.578Z,1.90
2023-02-15T05:08:37.630Z,1.70
2023-02-15T05:11:04.689Z,1.80
2023-02-15T05:13:31.755Z,1.70
2023-02-15T05:15:58.840Z,1.83
2023-02-15T05:18:25.926Z,1.67
2023-02-15T05:20:53.017Z,1.70
2023-02-15T05:23:20.092Z,1.90
2023-02-15T05:26:06.019Z,1.80
2023-02-15T05:31:00.299Z,1.80
2023-02-15T05:33:27.502Z,1.77
2023-02-15T05:35:54.572Z,1.60
2023-02-15T05:38:21.647Z,2.00
2023-02-15T05:40:50.142Z,1.80
2023-02-15T05:43:17.505Z,1.77
2023-02-15T05:45:44.631Z,1.70
2023-02-15T05:48:11.789Z,1.85
2023-02-15T05:50:38.844Z,1.60
2023-02-15T05:53:05.918Z,1.80
2023-02-15T05:55:33.005Z,1.80
2023-02-15T05:58:00.111Z,1.70
2023-02-15T06:02:59.609Z,1.90
2023-02-15T06:05:26.755Z,1.90
2023-02-15T06:07:53.837Z,1.85
2023-02-15T06:10:20.914Z,1.60
2023-02-15T06:12:47.988Z,1.90
2023-02-15T06:15:15.144Z,1.90
2023-02-15T06:17:42.208Z,2.00
2023-02-15T06:22:56.370Z,2.00
2023-02-15T06:25:23.508Z,1.90
2023-02-15T06:27:50.769Z,1.98
2023-02-15T06:30:17.865Z,2.10
2023-02-15T06:32:44.994Z,1.70
2023-02-15T06:35:12.551Z,1.80
2023-02-15T06:37:39.707Z,1.70
2023-02-15T06:42:33.830Z,2.05
2023-02-15T06:45:01.539Z,1.90
2023-02-15T06:47:28.636Z,1.88
2023-02-15T06:49:55.816Z,1.90
2023-02-15T06:52:22.883Z,1.90
2023-02-15T06:54:49.947Z,2.00
2023-02-15T06:57:17.034Z,1.75
2023-02-15T06:59:44.103Z,1.98
2023-02-15T07:02:11.177Z,1.73
2023-02-15T07:04:38.319Z,1.92
2023-02-15T07:07:05.411Z,2.08
2023-02-15T07:09:32.651Z,2.00
2023-02-15T07:12:18.280Z,2.00
2023-02-15T07:14:45.365Z,2.10
2023-02-15T07:17:34.380Z,1.85
2023-02-15T07:19:59.599Z,1.80
2023-02-15T07:22:26.710Z,1.90
2023-02-15T07:24:55.792Z,1.90
2023-02-15T07:27:22.913Z,2.15
2023-02-15T07:29:50.029Z,1.90
2023-02-15T07:32:17.161Z,2.10
2023-02-15T07:34:44.248Z,2.10
2023-02-15T07:37:11.322Z,1.98
2023-02-15T07:39:38.561Z,1.85
2023-02-15T07:42:05.630Z,2.08
2023-02-15T07:44:32.768Z,2.10
2023-02-15T07:46:59.871Z,2.10
2023-02-15T07:49:26.938Z,2.00
2023-02-15T07:51:54.060Z,2.10
2023-02-15T07:54:21.129Z,2.00
2023-02-15T07:56:48.288Z,1.98
2023-02-15T07:59:15.388Z,1.92
2023-02-15T08:01:42.529Z,1.88
2023-02-15T08:04:11.958Z,2.28
2023-02-15T08:06:39.036Z,2.30
2023-02-15T08:09:06.394Z,1.95
2023-02-15T08:11:40.855Z,1.98
2023-02-15T08:14:08.120Z,2.10
2023-02-15T08:16:35.482Z,2.17
2023-02-15T08:19:02.701Z,2.30
2023-02-15T08:21:29.795Z,2.15
2023-02-15T08:23:56.918Z,1.98
2023-02-15T08:26:24.029Z,2.20
2023-02-15T08:28:51.579Z,2.00
2023-02-15T08:33:45.812Z,1.90
2023-02-15T08:38:40.414Z,2.00
2023-02-15T08:41:07.489Z,2.10
2023-02-15T08:43:34.569Z,2.05
2023-02-15T08:46:01.719Z,2.08
2023-02-15T08:48:29.002Z,1.95
2023-02-15T08:50:56.095Z,2.13
2023-02-15T08:53:23.179Z,2.13
2023-02-15T08:55:52.322Z,2.38
2023-02-15T08:58:19.406Z,2.40
2023-02-15T09:00:47.531Z,2.28
2023-02-15T09:03:14.723Z,2.20
2023-02-15T09:05:41.799Z,2.22
2023-02-15T09:08:09.272Z,2.33
2023-02-15T09:10:36.465Z,2.17
2023-02-15T09:13:03.667Z,2.20
2023-02-15T09:15:30.791Z,2.20
2023-02-15T09:18:00.160Z,2.10
2023-02-15T09:20:27.249Z,2.20
2023-02-15T09:22:58.075Z,2.25
2023-02-15T09:25:26.161Z,2.10
2023-02-15T09:27:53.337Z,2.13
2023-02-15T09:33:07.740Z,2.10
2023-02-15T09:35:34.862Z,2.10
2023-02-15T09:38:01.985Z,2.20
2023-02-15T09:40:29.081Z,1.98
2023-02-15T09:45:43.388Z,2.00
2023-02-15T09:50:37.489Z,2.10
2023-02-15T09:53:04.585Z,2.13
2023-02-15T09:55:32.567Z,2.13
2023-02-15T09:57:59.702Z,2.08
2023-02-15T10:02:53.794Z,2.33
2023-02-15T10:05:20.969Z,2.38
2023-02-15T10:07:48.110Z,2.10
2023-02-15T10:10:15.192Z,2.10
2023-02-15T10:12:42.528Z,2.30
2023-02-15T10:17:37.766Z,2.45
2023-02-15T10:20:11.554Z,2.20
2023-02-15T10:22:38.698Z,2.13
2023-02-15T10:25:06.045Z,2.42
2023-02-15T10:27:33.128Z,2.28
2023-02-15T10:30:02.094Z,2.17
2023-02-15T10:32:30.359Z,2.22
2023-02-15T10:37:44.430Z,2.08
2023-02-15T10:40:11.604Z,2.08
2023-02-15T10:45:25.741Z,2.10
2023-02-15T10:47:52.912Z,1.98
2023-02-15T10:50:20.239Z,2.45
2023-02-15T10:52:47.400Z,2.22
2023-02-15T10:55:16.062Z,2.22
2023-02-15T10:57:43.640Z,2.20
2023-02-15T11:02:57.840Z,2.13
2023-02-15T11:05:24.930Z,2.38
2023-02-15T11:07:52.040Z,2.40
2023-02-15T11:12:46.081Z,1.95
2023-02-15T11:20:47.597Z,1.80
2023-02-15T11:23:16.369Z,2.00
2023-02-15T11:25:43.485Z,2.38
2023-02-15T11:33:27.082Z,2.30
2023-02-15T11:35:54.255Z,1.90
2023-02-15T11:38:21.553Z,2.15
2023-02-15T11:40:48.958Z,2.10
2023-02-15T11:46:03.233Z,1.80
2023-02-15T11:48:30.313Z,2.15
2023-02-15T11:50:57.369Z,2.15
2023-02-15T11:53:28.686Z,2.22
2023-02-15T11:55:57.263Z,1.90
2023-02-15T11:58:24.418Z,1.98
2023-02-15T12:00:53.804Z,1.90
2023-02-15T12:03:23.441Z,2.20
2023-02-15T12:05:50.752Z,2.20
2023-02-15T12:08:18.212Z,2.08
2023-02-15T12:10:45.530Z,2.30
2023-02-15T12:13:12.915Z,1.95
2023-02-15T12:15:40.113Z,2.10
2023-02-15T12:18:08.361Z,2.20
2023-02-15T12:20:35.458Z,1.90
2023-02-15T12:23:03.418Z,2.63
2023-02-15T12:25:30.595Z,1.95
2023-02-15T12:30:24.845Z,2.00
2023-02-15T12:35:19.062Z,2.17
2023-02-15T12:37:46.118Z,2.00
2023-02-15T12:40:13.320Z,1.92
2023-02-15T12:42:40.387Z,1.98
2023-02-15T12:45:07.461Z,2.25
2023-02-15T12:47:34.758Z,1.98
2023-02-15T12:50:01.837Z,2.05
2023-02-15T12:52:28.998Z,2.08
2023-02-15T12:54:56.093Z,2.30
2023-02-15T12:57:23.254Z,1.90
2023-02-15T12:59:50.417Z,2.28
2023-02-15T13:02:17.757Z,2.10
2023-02-15T13:04:45.016Z,2.00
2023-02-15T13:07:12.149Z,2.17
2023-02-15T13:09:39.277Z,2.17
2023-02-15T13:12:06.424Z,1.83
2023-02-15T13:14:33.587Z,2.15
2023-02-15T13:17:00.826Z,2.28
2023-02-15T13:19:28.059Z,1.92
2023-02-15T13:24:22.167Z,2.00
2023-02-15T13:26:49.300Z,2.10
2023-02-15T13:32:04.045Z,2.28
2023-02-15T13:34:31.260Z,2.22
2023-02-15T13:36:58.372Z,2.20
2023-02-15T13:39:25.539Z,2.67
2023-02-15T13:41:53.445Z,2.25
2023-02-15T13:44:20.542Z,2.10
2023-02-15T13:46:47.691Z,2.30
2023-02-15T13:52:01.759Z,1.98
2023-02-15T13:54:28.930Z,2.30
2023-02-15T13:56:56.016Z,1.92
2023-02-15T13:59:23.110Z,2.13
2023-02-15T14:01:50.248Z,2.20
2023-02-15T14:06:44.523Z,2.30
2023-02-15T14:11:58.721Z,2.35
2023-02-15T14:14:26.078Z,2.28
2023-02-15T14:17:06.036Z,2.30
2023-02-15T14:19:33.992Z,2.15
2023-02-15T14:22:03.042Z,2.38
2023-02-15T14:24:30.529Z,2.20
2023-02-15T14:26:57.695Z,2.20
2023-02-15T14:29:24.766Z,2.08
2023-02-15T14:31:51.949Z,2.30
2023-02-15T14:36:46.283Z,1.90
2023-02-15T14:39:33.568Z,2.38
2023-02-15T14:44:27.762Z,2.10
2023-02-15T14:46:54.927Z,2.72
2023-02-15T14:49:22.011Z,2.45
2023-02-15T14:51:50.359Z,2.22
2023-02-15T14:57:06.473Z,2.30
2023-02-15T14:59:33.563Z,2.17
2023-02-15T15:02:00.706Z,2.35
2023-02-15T15:04:27.840Z,2.40
2023-02-15T15:06:54.919Z,2.40
2023-02-15T15:09:22.006Z,2.50
2023-02-15T15:11:49.102Z,2.55
2023-02-15T15:14:16.171Z,2.58
2023-02-15T15:16:43.297Z,2.65
2023-02-15T15:19:10.569Z,2.22
2023-02-15T15:21:37.656Z,2.33
2023-02-15T15:24:04.848Z,2.50
2023-02-15T15:26:34.256Z,2.60
2023-02-15T15:29:01.418Z,2.85
2023-02-15T15:37:02.707Z,2.40
2023-02-15T15:42:16.791Z,2.50
2023-02-15T15:44:43.893Z,2.70
2023-02-15T15:47:11.040Z,2.70
2023-02-15T15:49:38.154Z,2.80
2023-02-15T15:52:05.230Z,3.15
2023-02-15T15:54:32.643Z,2.83
2023-02-15T15:56:59.767Z,2.90
2023-02-15T15:59:26.849Z,3.10
2023-02-15T16:01:53.980Z,2.90
2023-02-15T16:04:21.094Z,3.00
2023-02-15T16:06:48.159Z,3.00
2023-02-15T16:11:42.413Z,3.10
2023-02-15T16:16:56.616Z,3.63
2023-02-15T16:19:23.801Z,3.40
2023-02-15T16:21:50.920Z,3.10
2023-02-15T16:24:18.656Z,3.45
2023-02-15T16:26:45.912Z,3.40
2023-02-15T16:31:40.101Z,3.50
2023-02-15T16:34:07.233Z,3.53
2023-02-15T16:36:34.377Z,3.30
2023-02-15T16:39:02.191Z,3.53
2023-02-15T16:41:29.325Z,3.28
2023-02-15T16:43:56.404Z,3.47
2023-02-15T16:46:23.498Z,3.60
2023-02-15T16:48:52.758Z,3.90
2023-02-15T16:51:19.839Z,3.20
2023-02-15T16:53:46.950Z,3.90
2023-02-15T16:56:14.064Z,3.88
2023-02-15T16:58:41.130Z,3.97
2023-02-15T17:01:08.221Z,3.50
2023-02-15T17:03:35.345Z,3.83
2023-02-15T17:08:49.513Z,3.83
2023-02-15T17:11:16.667Z,3.70
2023-02-15T17:13:43.751Z,4.10
2023-02-15T17:16:10.855Z,3.85
2023-02-15T17:18:37.938Z,3.90
2023-02-15T17:21:05.102Z,3.88
2023-02-15T17:23:32.460Z,3.80
2023-02-15T17:25:59.538Z,3.55
2023-02-15T17:28:26.645Z,4.00
2023-02-15T17:30:54.036Z,3.95
2023-02-15T17:33:21.362Z,4.22
2023-02-15T17:35:48.442Z,4.03
2023-02-15T17:38:15.538Z,3.92
2023-02-15T17:43:23.942Z,4.20
2023-02-15T17:45:51.125Z,4.18
2023-02-15T17:48:18.288Z,4.00
2023-02-15T17:50:45.429Z,4.30
2023-02-15T17:55:39.509Z,4.05
2023-02-15T17:58:06.634Z,4.07
2023-02-15T18:00:52.733Z,4.13
2023-02-15T18:03:38.655Z,3.83
2023-02-15T18:09:12.584Z,3.88
2023-02-15T18:11:40.089Z,4.00
2023-02-15T18:14:07.277Z,4.30
2023-02-15T18:16:34.427Z,4.60
2023-02-15T18:19:01.855Z,3.80
2023-02-15T18:21:28.942Z,4.20
2023-02-15T18:23:56.047Z,4.00
2023-02-15T18:26:23.189Z,4.20
2023-02-15T18:28:50.293Z,4.00
2023-02-15T18:31:17.508Z,4.50
2023-02-15T18:33:44.764Z,4.10
2023-02-15T18:41:26.265Z,4.20
2023-02-15T18:43:55.364Z,3.85
2023-02-15T18:46:22.498Z,4.05
2023-02-15T18:48:49.566Z,4.05
2023-02-15T18:51:17.073Z,4.60
2023-02-15T18:53:44.148Z,4.22
2023-02-15T18:58:38.963Z,4.57
2023-02-15T19:01:06.434Z,4.85
2023-02-15T19:03:33.884Z,4.30
2023-02-15T19:06:01.238Z,4.75
2023-02-15T19:08:28.305Z,4.15
2023-02-15T19:10:55.388Z,4.65
2023-02-15T19:18:56.526Z,4.63
2023-02-15T19:21:23.763Z,5.10
2023-02-15T19:23:50.837Z,4.90
2023-02-15T19:26:17.952Z,4.63
2023-02-15T19:28:45.078Z,5.43
2023-02-15T19:33:59.281Z,5.47
2023-02-15T19:36:26.439Z,4.82
2023-02-15T19:38:54.572Z,4.80
2023-02-15T19:41:22.102Z,5.13
2023-02-15T19:43:53.146Z,5.03
2023-02-15T19:46:21.763Z,5.03
2023-02-15T19:48:50.861Z,5.47
2023-02-15T19:51:18.401Z,5.10
2023-02-15T19:53:45.497Z,5.30
2023-02-15T19:58:59.896Z,5.43
2023-02-15T20:01:27.218Z,5.47
2023-02-15T20:03:55.600Z,5.43
2023-02-15T20:06:22.783Z,5.53
2023-02-15T20:08:51.073Z,5.38
2023-02-15T20:11:18.160Z,5.60
2023-02-15T20:13:45.276Z,5.70
2023-02-15T20:18:59.342Z,5.90
2023-02-15T20:21:26.474Z,5.80
2023-02-15T20:23:53.553Z,5.55
2023-02-15T20:26:21.167Z,5.88
2023-02-15T20:28:48.637Z,6.20
2023-02-15T20:34:02.812Z,6.05
2023-02-15T20:36:29.956Z,6.18
2023-02-15T20:38:57.289Z,6.40
2023-02-15T20:44:03.437Z,6.07
2023-02-15T20:46:30.544Z,6.07
2023-02-15T20:48:57.776Z,6.25
2023-02-15T20:53:51.887Z,6.45
2023-02-15T20:56:18.991Z,6.32
2023-02-15T20:58:46.077Z,6.47
2023-02-15T21:01:13.217Z,6.57
2023-02-15T21:03:40.403Z,6.05
2023-02-15T21:06:08.916Z,6.03
2023-02-15T21:08:35.997Z,6.20
2023-02-15T21:11:03.577Z,6.20
2023-02-15T21:13:30.911Z,6.13
2023-02-15T21:15:58.053Z,6.57
2023-02-15T21:18:25.178Z,6.60
2023-02-15T21:20:52.263Z,6.60
2023-02-15T21:23:19.414Z,6.28
2023-02-15T21:25:46.568Z,7.07
2023-02-15T21:31:00.778Z,6.55
2023-02-15T21:33:27.999Z,6.75
2023-02-15T21:35:55.089Z,6.25
2023-02-15T21:38:22.182Z,6.20
2023-02-15T21:40:49.257Z,7.00
2023-02-15T21:43:35.134Z,6.60
2023-02-15T21:48:48.141Z,6.47
2023-02-15T21:51:33.823Z,7.05
2023-02-15T21:54:00.904Z,6.47
2023-02-15T21:56:27.996Z,6.40
2023-02-15T22:01:42.181Z,6.53
2023-02-15T22:04:09.301Z,6.22
2023-02-15T22:06:36.437Z,6.57
2023-02-15T22:09:03.507Z,6.90
2023-02-15T22:11:32.059Z,6.32
2023-02-15T22:13:59.169Z,6.53
2023-02-15T22:16:26.538Z,7.13
2023-02-15T22:18:53.638Z,6.32
2023-02-15T22:21:20.873Z,6.93
2023-02-15T22:23:48.009Z,6.80
2023-02-15T22:29:02.114Z,6.68
2023-02-15T22:31:29.264Z,6.28
2023-02-15T22:33:56.381Z,6.72
2023-02-15T22:36:23.903Z,6.75
2023-02-15T22:38:51.085Z,6.28
2023-02-15T22:41:18.339Z,6.35
2023-02-15T22:43:45.409Z,6.43
2023-02-15T22:46:12.506Z,6.78
2023-02-15T22:48:39.681Z,6.75
2023-02-15T22:51:06.802Z,6.93
2023-02-15T22:53:33.928Z,6.65
2023-02-15T22:56:01.041Z,7.10
2023-02-15T22:58:28.142Z,6.95
2023-02-15T23:00:55.399Z,6.85
2023-02-15T23:03:22.511Z,7.00
2023-02-15T23:05:49.658Z,6.88
2023-02-15T23:10:43.935Z,6.70
2023-02-15T23:13:25.600Z,7.15
2023-02-15T23:15:53.170Z,6.68
2023-02-15T23:18:20.288Z,6.80
2023-02-15T23:20:47.433Z,7.22
2023-02-15T23:25:41.603Z,7.22
2023-02-15T23:28:08.664Z,7.07
2023-02-15T23:30:35.786Z,7.10
2023-02-15T23:33:02.853Z,6.90
2023-02-15T23:35:29.994Z,7.18
2023-02-15T23:41:03.121Z,6.90
2023-02-15T23:43:31.173Z,7.10
2023-02-15T23:45:58.288Z,7.28
2023-02-15T23:48:31.486Z,6.63
2023-02-15T23:50:58.749Z,6.63
2023-02-15T23:53:25.893Z,7.13
2023-02-15T23:55:52.967Z,6.90
2023-02-15T23:58:20.081Z,7.47
